createdAt,value
2019-05-28T00:06:39.125Z,45.37
2019-05-28T00:16:42.862Z,45.08
2019-05-28T00:26:46.634Z,44.93
2019-05-28T00:36:50.324Z,44.92
2019-05-28T00:46:54.135Z,44.92
2019-05-28T00:56:57.700Z,44.80
2019-05-28T01:07:01.399Z,44.83
2019-05-28T01:17:05.473Z,44.92
2019-05-28T01:27:09.517Z,44.99
2019-05-28T01:37:13.074Z,45.07
2019-05-28T01:47:16.663Z,45.61
2019-05-28T01:57:20.198Z,45.34
2019-05-28T02:07:23.735Z,45.56
2019-05-28T02:17:27.680Z,45.48
2019-05-28T02:27:31.272Z,45.56
2019-05-28T02:37:34.839Z,45.45
2019-05-28T02:47:38.466Z,45.23
2019-05-28T02:57:43.051Z,45.10
2019-05-28T03:07:48.026Z,45.26
2019-05-28T03:17:54.706Z,45.06
2019-05-28T03:27:58.592Z,45.02
2019-05-28T03:38:02.198Z,45.05
2019-05-28T03:48:05.794Z,44.93
2019-05-28T03:58:09.393Z,44.74
2019-05-28T04:08:13.011Z,45.03
2019-05-28T04:18:16.686Z,44.93
2019-05-28T04:28:20.227Z,44.60
2019-05-28T04:38:24.182Z,44.33
2019-05-28T04:48:27.786Z,44.13
2019-05-28T04:58:31.345Z,43.91
2019-05-28T05:08:34.946Z,43.74
2019-05-28T05:18:38.481Z,43.78
2019-05-28T05:28:42.070Z,43.50
2019-05-28T05:38:46.208Z,43.38
2019-05-28T05:48:49.741Z,43.46
2019-05-28T05:58:53.382Z,43.74
2019-05-28T06:08:59.724Z,43.86
2019-05-28T06:19:02.230Z,44.20
2019-05-28T06:29:05.822Z,44.16
2019-05-28T06:39:09.362Z,44.40
2019-05-28T06:49:12.961Z,43.76
2019-05-28T06:59:16.492Z,44.30
2019-05-28T07:09:20.086Z,44.55
2019-05-28T07:19:25.171Z,45.54
2019-05-28T07:29:29.037Z,45.17
2019-05-28T07:39:32.625Z,45.38
2019-05-28T07:49:36.186Z,45.36
2019-05-28T07:59:39.765Z,45.36
2019-05-28T08:09:43.313Z,45.40
2019-05-28T08:19:46.882Z,46.98
2019-05-28T08:29:50.695Z,47.17
2019-05-28T08:39:54.358Z,47.04
2019-05-28T08:49:57.943Z,46.79
2019-05-28T09:00:01.508Z,47.65
2019-05-28T09:10:06.948Z,46.16
2019-05-28T09:20:10.499Z,46.70
2019-05-28T09:30:14.065Z,47.07
2019-05-28T09:40:17.738Z,47.15
2019-05-28T09:50:30.485Z,46.97
2019-05-28T10:00:26.975Z,46.97
2019-05-28T10:10:30.543Z,46.76
2019-05-28T10:20:37.727Z,46.70
2019-05-28T10:30:39.436Z,45.95
2019-05-28T10:40:42.967Z,45.93
2019-05-28T10:50:46.503Z,45.67
2019-05-28T11:00:50.076Z,45.97
2019-05-28T11:10:53.871Z,45.65
2019-05-28T11:20:58.746Z,45.56
2019-05-28T11:31:02.366Z,46.00
2019-05-28T11:41:05.951Z,47.41
2019-05-28T11:51:09.590Z,47.23
2019-05-28T12:01:13.349Z,48.17
2019-05-28T12:11:17.050Z,48.43
2019-05-28T12:21:20.644Z,48.95
2019-05-28T12:31:24.258Z,49.58
2019-05-28T12:41:27.879Z,49.84
2019-05-28T12:51:31.723Z,50.39
2019-05-28T13:01:35.625Z,50.61
2019-05-28T13:11:39.548Z,50.39
2019-05-28T13:21:43.321Z,50.72
2019-05-28T13:31:47.126Z,50.76
2019-05-28T13:41:50.867Z,48.67
2019-05-28T13:52:10.976Z,48.30
2019-05-28T14:01:59.690Z,48.20
2019-05-28T14:12:05.522Z,48.08
2019-05-28T14:22:09.265Z,47.97
2019-05-28T14:32:12.868Z,48.74
2019-05-28T14:42:17.620Z,49.85
2019-05-28T14:52:21.423Z,49.63
2019-05-28T15:02:25.138Z,48.73
2019-05-28T15:12:29.078Z,48.31
2019-05-28T15:22:32.650Z,48.57
2019-05-28T15:32:36.320Z,49.32
2019-05-28T15:42:40.337Z,49.99
2019-05-28T15:52:43.967Z,50.28
2019-05-28T16:02:47.751Z,50.16
2019-05-28T16:12:51.608Z,50.50
2019-05-28T16:22:55.945Z,50.48
2019-05-28T16:32:59.803Z,50.70
2019-05-28T16:43:03.420Z,50.82
2019-05-28T16:53:07.010Z,50.36
2019-05-28T17:03:10.583Z,50.63
2019-05-28T17:13:14.186Z,50.75
2019-05-28T17:23:17.979Z,50.70
2019-05-28T17:33:21.979Z,50.96
2019-05-28T17:43:26.205Z,51.04
2019-05-28T17:53:30.052Z,50.40
2019-05-28T18:03:35.405Z,49.88
2019-05-28T18:13:39.227Z,49.83
2019-05-28T18:23:42.868Z,49.50
2019-05-28T18:33:46.564Z,49.16
2019-05-28T18:43:50.169Z,48.79
2019-05-28T18:53:53.743Z,48.76
2019-05-28T19:03:58.076Z,48.74
2019-05-28T19:14:02.887Z,48.98
2019-05-28T19:24:08.301Z,48.98
2019-05-28T19:34:13.237Z,48.78
2019-05-28T19:44:17.299Z,48.70
2019-05-28T19:54:20.879Z,48.84
2019-05-28T20:04:24.413Z,49.15
2019-05-28T20:14:28.294Z,49.80
2019-05-28T20:24:31.857Z,49.40
2019-05-28T20:34:35.440Z,49.61
2019-05-28T20:44:39.002Z,50.08
2019-05-28T20:54:42.640Z,49.83
2019-05-28T21:04:46.181Z,50.09
2019-05-28T21:14:50.984Z,49.65
2019-05-28T21:24:56.162Z,49.74
2019-05-28T21:35:02.501Z,49.68
2019-05-28T21:45:06.763Z,49.48
2019-05-28T21:55:10.312Z,49.20
2019-05-28T22:05:15.469Z,49.74
2019-05-28T22:15:19.063Z,49.25
2019-05-28T22:25:22.626Z,48.87
2019-05-28T22:35:26.219Z,48.92
2019-05-28T22:45:29.860Z,48.96
2019-05-28T22:55:33.513Z,49.11
2019-05-28T23:05:37.115Z,48.80
2019-05-28T23:15:40.750Z,48.74
2019-05-28T23:25:44.270Z,48.60
2019-05-28T23:35:47.845Z,48.42
2019-05-28T23:45:51.386Z,48.32
2019-05-28T23:55:54.999Z,48.54
